Newberry, MI

1:56 PM EDT on June 28, 2017 (GMT -0400)
Luce County

Weather History for KERY - March, 2012

Change the Weather History Date:

Wednesday, March 7, 2012

  Actual Average Record
Temperature  
Mean Temperature 39 °F -  
Max Temperature 46 °F 32 °F 64 °F (1987)
Min Temperature 32 °F 13 °F -18 °F (1984)
Degree Days  
Heating Degree Days 26    
Moisture  
Dew Point 38 °F    
Average Humidity 80    
Maximum Humidity 100    
Minimum Humidity 66    
Precipitation  
Precipitation 0.00 in - - ()
Sea Level Pressure  
Sea Level Pressure 29.68 in    
Wind  
Wind Speed 17 mph (SSW)    
Max Wind Speed 34 mph    
Max Gust Speed 41 mph    
Visibility 9 miles    
Events Rain    
Averages and records for this station are not official NWS values.
T = Trace of Precipitation, MM = Missing Value Source: NWS Daily Summary

Daily Weather History Graph

Daily Weather History Graph

Search for Another Location

Airport or City:

Trip Planner

Search our weather history database for the weather conditions in past years. The results will help you decide how hot, cold, wet, or windy it might be!

Date:

Astronomy

Mar. 07, 2012 Rise Set
Actual Time 7:08 AM EST 6:37 PM EST
Civil Twilight 6:38 AM EST 7:07 PM EST
Nautical Twilight 6:04 AM EST 7:42 PM EST
Astronomical Twilight 5:29 AM EST 8:17 PM EST
Moon 6:14 PM EST (3/7) 6:19 AM EST (3/7)
Length of Visible Light 12h 28m
Length of Day
11h 28m
Waxing Gibbous, 99% of the Moon is Illuminated
Mar 7
Waxing Gibbous
Mar 8
Full
Mar 14
Last Quarter
Mar 22
New
Mar 30
First Quarter

Hourly Weather History & Observations

Time (EST) Temp. Windchill Dew Point Humidity Pressure Visibility Wind Dir Wind Speed Gust Speed Precip Events Conditions
12:14 AM 32.0 °F 27.5 °F 30.2 °F 93% 29.77 in 10.0 mi SE 4.6 mph - N/A   Clear
12:35 AM 32.0 °F 27.5 °F 30.2 °F 93% 29.76 in 10.0 mi SE 4.6 mph - N/A   Clear
12:54 AM 33.8 °F 28.6 °F 30.2 °F 87% 29.76 in 10.0 mi SE 5.8 mph - N/A   Clear
1:15 AM 35.6 °F 29.2 °F 33.8 °F 93% 29.75 in 10.0 mi SSE 8.1 mph - N/A   Clear
1:54 AM 42.8 °F 35.4 °F 37.4 °F 81% 29.75 in 10.0 mi South 15.0 mph 20.7 mph N/A   Clear
2:15 AM 42.8 °F 34.8 °F 37.4 °F 81% 29.75 in 10.0 mi South 17.3 mph 23.0 mph N/A   Clear
2:54 AM 41.0 °F 31.9 °F 37.4 °F 87% 29.75 in 10.0 mi South 19.6 mph 24.2 mph N/A   Clear
3:15 AM 42.8 °F 34.8 °F 37.4 °F 81% 29.75 in 10.0 mi SSW 17.3 mph 24.2 mph N/A   Clear
3:34 AM 42.8 °F 34.5 °F 37.4 °F 81% 29.75 in 10.0 mi SSW 18.4 mph - N/A   Clear
3:55 AM 42.8 °F 34.8 °F 37.4 °F 81% 29.75 in 10.0 mi SSW 17.3 mph 24.2 mph N/A   Clear
4:55 AM 41.0 °F 31.6 °F 37.4 °F 87% 29.75 in 10.0 mi SSW 20.7 mph 24.2 mph N/A   Clear
5:14 AM 41.0 °F 33.1 °F 37.4 °F 87% 29.75 in 10.0 mi SSW 15.0 mph 26.5 mph N/A   Clear
5:34 AM 42.8 °F 34.3 °F 37.4 °F 81% 29.75 in 10.0 mi SSW 19.6 mph 25.3 mph N/A   Clear
5:54 AM 42.8 °F 34.3 °F 37.4 °F 81% 29.75 in 10.0 mi SSW 19.6 mph 28.8 mph N/A   Clear
6:15 AM 42.8 °F 33.3 °F 37.4 °F 81% 29.75 in 10.0 mi SSW 24.2 mph 31.1 mph N/A   Clear
6:34 AM 42.8 °F 34.3 °F 37.4 °F 81% 29.74 in 10.0 mi SSW 19.6 mph 27.6 mph N/A   Clear
6:54 AM 44.6 °F 35.9 °F 37.4 °F 76% 29.74 in 10.0 mi SSW 23.0 mph 28.8 mph N/A   Clear
7:34 AM 44.6 °F 36.1 °F 37.4 °F 76% 29.75 in 10.0 mi SSW 21.9 mph 31.1 mph N/A   Clear
7:55 AM 44.6 °F 36.1 °F 37.4 °F 76% 29.75 in 10.0 mi SSW 21.9 mph - N/A   Clear
8:15 AM 44.6 °F 36.4 °F 37.4 °F 76% 29.75 in 10.0 mi SSW 20.7 mph 28.8 mph N/A   Clear
8:34 AM 44.6 °F 36.9 °F 37.4 °F 76% 29.75 in 10.0 mi SSW 18.4 mph 28.8 mph N/A   Scattered Clouds
8:55 AM 44.6 °F 36.4 °F 37.4 °F 76% 29.74 in 10.0 mi SSW 20.7 mph 26.5 mph N/A   Mostly Cloudy
9:14 AM 44.6 °F 36.9 °F 37.4 °F 76% 29.75 in 10.0 mi SSW 18.4 mph 28.8 mph N/A   Overcast
9:34 AM 44.6 °F 35.7 °F 37.4 °F 76% 29.74 in 10.0 mi SSW 24.2 mph 29.9 mph N/A   Mostly Cloudy
9:55 AM 44.6 °F 36.1 °F 37.4 °F 76% 29.73 in 10.0 mi South 21.9 mph 26.5 mph N/A   Mostly Cloudy
10:14 AM 44.6 °F 35.9 °F 37.4 °F 76% 29.73 in 10.0 mi South 23.0 mph 29.9 mph N/A   Mostly Cloudy
10:34 AM 46.4 °F 37.9 °F 37.4 °F 71% 29.73 in 10.0 mi SSW 25.3 mph 36.8 mph N/A   Mostly Cloudy
10:55 AM 46.4 °F 38.3 °F 37.4 °F 71% 29.72 in 10.0 mi SSW 23.0 mph 31.1 mph N/A   Mostly Cloudy
11:14 AM 46.4 °F 38.5 °F 35.6 °F 66% 29.70 in 10.0 mi South 21.9 mph 35.7 mph N/A   Mostly Cloudy
11:35 AM 46.4 °F 37.5 °F 35.6 °F 66% 29.71 in 10.0 mi SSW 27.6 mph 35.7 mph N/A   Mostly Cloudy
11:55 AM 46.4 °F 36.5 °F 35.6 °F 66% 29.70 in 10.0 mi South 34.5 mph 41.4 mph N/A   Overcast
12:14 PM 46.4 °F 37.0 °F 35.6 °F 66% 29.69 in 10.0 mi SSW 31.1 mph 40.3 mph N/A   Overcast
12:35 PM 46.4 °F 37.2 °F 35.6 °F 66% 29.68 in 10.0 mi SSW 29.9 mph 36.8 mph N/A   Overcast
12:54 PM 46.4 °F 37.5 °F 35.6 °F 66% 29.68 in 10.0 mi SSW 27.6 mph 36.8 mph N/A   Overcast
1:15 PM 46.4 °F 38.5 °F 35.6 °F 66% 29.67 in 10.0 mi SSW 21.9 mph 36.8 mph N/A   Overcast
1:35 PM 44.6 °F 35.3 °F 35.6 °F 71% 29.67 in 10.0 mi SSW 26.5 mph 35.7 mph N/A   Overcast
1:54 PM 44.6 °F 36.1 °F 35.6 °F 71% 29.66 in 10.0 mi South 21.9 mph 32.2 mph N/A   Overcast
2:15 PM 44.6 °F 35.7 °F 35.6 °F 71% 29.66 in 10.0 mi South 24.2 mph 34.5 mph N/A   Overcast
2:35 PM 42.8 °F 34.0 °F 35.6 °F 76% 29.65 in 10.0 mi South 20.7 mph 29.9 mph N/A   Overcast
2:54 PM 42.8 °F 33.3 °F 35.6 °F 76% 29.64 in 10.0 mi South 24.2 mph 33.4 mph N/A   Overcast
3:15 PM 44.6 °F 35.9 °F 37.4 °F 76% 29.64 in 10.0 mi South 23.0 mph 29.9 mph N/A   Overcast
3:35 PM 44.6 °F 36.4 °F 37.4 °F 76% 29.64 in 10.0 mi South 20.7 mph 29.9 mph N/A   Overcast
3:52 PM 44.6 °F 36.1 °F 37.4 °F 76% 29.64 in 10.0 mi SSW 21.9 mph 29.9 mph N/A   Overcast
4:24 PM 42.8 °F 34.3 °F 37.4 °F 81% 29.63 in 10.0 mi South 19.6 mph 28.8 mph N/A   Overcast
4:34 PM 44.6 °F 36.4 °F 37.4 °F 76% 29.62 in 10.0 mi South 20.7 mph 28.8 mph N/A   Overcast
4:55 PM 42.8 °F 34.8 °F 37.4 °F 81% 29.62 in 10.0 mi South 17.3 mph 23.0 mph N/A   Overcast
5:15 PM 44.6 °F 36.4 °F 39.2 °F 81% 29.61 in 10.0 mi South 20.7 mph 27.6 mph N/A   Overcast
5:34 PM 44.6 °F 36.9 °F 39.2 °F 81% 29.61 in 10.0 mi South 18.4 mph 27.6 mph N/A   Overcast
5:55 PM 44.6 °F 36.9 °F 39.2 °F 81% 29.60 in 10.0 mi South 18.4 mph 27.6 mph N/A   Overcast
6:14 PM 44.6 °F 36.6 °F 39.2 °F 81% 29.60 in 10.0 mi South 19.6 mph - N/A   Overcast
6:34 PM 44.6 °F 36.6 °F 39.2 °F 81% 29.59 in 10.0 mi SSW 19.6 mph 25.3 mph N/A   Overcast
6:55 PM 44.6 °F 36.1 °F 41.0 °F 87% 29.59 in 10.0 mi SSW 21.9 mph 25.3 mph N/A   Overcast
7:14 PM 46.4 °F 39.2 °F 41.0 °F 81% 29.59 in 5.0 mi SSW 18.4 mph 25.3 mph N/A   Haze
7:34 PM 44.6 °F 37.4 °F 42.8 °F 93% 29.59 in 3.0 mi SSW 16.1 mph 24.2 mph N/A   Overcast
7:55 PM 44.6 °F 36.6 °F 42.8 °F 93% 29.59 in 5.0 mi SSW 19.6 mph 24.2 mph N/A Rain Light Rain
8:14 PM 44.6 °F 36.6 °F 42.8 °F 93% 29.58 in 5.0 mi SSW 19.6 mph 28.8 mph N/A   Overcast
8:34 PM 44.6 °F 36.4 °F 44.6 °F 100% 29.57 in 2.0 mi SSW 20.7 mph 28.8 mph N/A   Overcast
8:54 PM 46.4 °F 39.0 °F 44.6 °F 93% 29.57 in 5.0 mi SSW 19.6 mph 32.2 mph N/A Rain Light Rain
9:15 PM 46.4 °F 38.5 °F 44.6 °F 93% 29.57 in 2.0 mi SSW 21.9 mph 29.9 mph N/A   Overcast
9:34 PM 46.4 °F 38.1 °F 44.6 °F 93% 29.56 in 2.5 mi SSW 24.2 mph 36.8 mph N/A   Overcast
9:54 PM 44.6 °F 38.8 °F 42.8 °F 93% 29.58 in 2.0 mi WSW 11.5 mph 26.5 mph N/A   Overcast
10:14 PM 42.8 °F 37.0 °F 42.8 °F 100% 29.59 in 5.0 mi West 10.4 mph 18.4 mph N/A Rain Light Rain
10:34 PM 41.0 °F 35.2 °F 39.2 °F 93% 29.59 in 5.0 mi WNW 9.2 mph - N/A Rain Rain
10:55 PM 39.2 °F 32.0 °F 37.4 °F 93% 29.60 in 5.0 mi NW 11.5 mph 17.3 mph N/A Rain Light Rain
11:14 PM 37.4 °F 31.4 °F 35.6 °F 93% 29.61 in 10.0 mi WNW 8.1 mph - N/A Rain Light Rain
11:34 PM 37.4 °F 30.8 °F 35.6 °F 93% 29.62 in 10.0 mi NW 9.2 mph - N/A   Overcast